createdAt,value
2022-09-03T00:01:50.906Z,99848.37
2022-09-03T00:04:41.037Z,99852.59
2022-09-03T00:07:22.884Z,99853.00
2022-09-03T00:09:55.919Z,99855.06
2022-09-03T00:12:24.941Z,99862.22
2022-09-03T00:15:01.750Z,99845.12
2022-09-03T00:17:42.415Z,99853.00
2022-09-03T00:20:20.550Z,99849.03
2022-09-03T00:22:55.810Z,99853.66
2022-09-03T00:25:41.066Z,99851.38
2022-09-03T00:28:14.779Z,99852.84
2022-09-03T00:30:42.895Z,99859.03
2022-09-03T00:33:15.671Z,99854.19
2022-09-03T00:35:43.822Z,99853.59
2022-09-03T00:38:11.188Z,99856.06
2022-09-03T00:41:00.104Z,99853.59
2022-09-03T00:43:56.266Z,99847.84
2022-09-03T00:46:37.675Z,99845.28
2022-09-03T00:49:14.288Z,99849.09
2022-09-03T00:52:04.368Z,99848.31
2022-09-03T00:54:56.838Z,99848.22
2022-09-03T00:57:44.306Z,99851.03
2022-09-03T01:00:15.531Z,99851.09
2022-09-03T01:03:08.001Z,99845.59
2022-09-03T01:06:01.847Z,99855.47
2022-09-03T01:08:32.979Z,99862.59
2022-09-03T01:11:05.396Z,99865.84
2022-09-03T01:13:42.393Z,99872.50
2022-09-03T01:16:30.342Z,99868.19
2022-09-03T01:19:08.977Z,99873.97
2022-09-03T01:22:21.136Z,99874.50
2022-09-03T01:25:48.623Z,99883.97
2022-09-03T01:28:22.077Z,99873.41
2022-09-03T01:30:59.248Z,99872.31
2022-09-03T01:34:06.014Z,99871.19
2022-09-03T01:36:59.230Z,99876.16
2022-09-03T01:39:43.904Z,99872.78
2022-09-03T01:42:23.732Z,99873.25
2022-09-03T01:45:22.628Z,99876.91
2022-09-03T01:48:06.058Z,99874.16
2022-09-03T01:50:43.242Z,99870.16
2022-09-03T01:53:48.488Z,99878.31
2022-09-03T01:56:28.221Z,99878.69
2022-09-03T01:59:07.241Z,99877.31
2022-09-03T02:02:06.983Z,99883.59
2022-09-03T02:04:34.697Z,99879.78
2022-09-03T02:07:03.269Z,99876.50
2022-09-03T02:09:32.816Z,99879.75
2022-09-03T02:12:06.455Z,99879.78
2022-09-03T02:14:34.589Z,99869.66
2022-09-03T02:17:02.319Z,99880.88
2022-09-03T02:19:30.219Z,99879.69
2022-09-03T02:21:58.532Z,99884.09
2022-09-03T02:24:26.228Z,99885.22
2022-09-03T02:26:54.031Z,99880.63
2022-09-03T02:29:21.674Z,99882.53
2022-09-03T02:31:49.039Z,99877.56
2022-09-03T02:34:16.417Z,99880.94
2022-09-03T02:36:46.350Z,99879.31
2022-09-03T02:39:15.325Z,99875.19
2022-09-03T02:41:42.724Z,99873.81
2022-09-03T02:44:18.214Z,99878.72
2022-09-03T02:47:00.343Z,99874.59
2022-09-03T02:49:28.735Z,99875.53
2022-09-03T02:52:09.436Z,99882.84
2022-09-03T02:54:39.798Z,99874.88
2022-09-03T02:57:11.771Z,99883.09
2022-09-03T02:59:40.063Z,99880.06
2022-09-03T03:02:07.870Z,99888.34
2022-09-03T03:04:35.306Z,99885.63
2022-09-03T03:07:03.011Z,99875.97
2022-09-03T03:09:30.385Z,99877.88
2022-09-03T03:11:57.776Z,99869.94
2022-09-03T03:14:25.468Z,99880.94
2022-09-03T03:16:52.927Z,99884.28
2022-09-03T03:19:20.348Z,99884.50
2022-09-03T03:21:48.008Z,99883.38
2022-09-03T03:24:15.418Z,99880.34
2022-09-03T03:26:42.763Z,99884.44
2022-09-03T03:29:14.866Z,99896.53
2022-09-03T03:31:42.256Z,99896.31
2022-09-03T03:34:09.929Z,99899.63
2022-09-03T03:36:37.687Z,99898.78
2022-09-03T03:39:05.097Z,99901.47
2022-09-03T03:41:34.317Z,99896.28
2022-09-03T03:44:08.224Z,99894.63
2022-09-03T03:46:37.741Z,99894.09
2022-09-03T03:49:08.917Z,99898.97
2022-09-03T03:51:38.010Z,99901.41
2022-09-03T03:54:05.867Z,99902.00
2022-09-03T03:56:34.681Z,99899.03
2022-09-03T03:59:03.022Z,99899.84
2022-09-03T04:01:30.466Z,99904.47
2022-09-03T04:04:00.200Z,99911.34
2022-09-03T04:06:28.260Z,99914.00
2022-09-03T04:08:55.905Z,99916.53
2022-09-03T04:11:24.402Z,99918.94
2022-09-03T04:13:52.184Z,99916.44
2022-09-03T04:16:22.111Z,99931.03
2022-09-03T04:18:50.118Z,99932.66
2022-09-03T04:21:20.519Z,99925.78
2022-09-03T04:23:49.450Z,99929.03
2022-09-03T04:26:19.244Z,99918.69
2022-09-03T04:28:46.991Z,99925.56
2022-09-03T04:31:16.707Z,99923.06
2022-09-03T04:33:44.617Z,99925.84
2022-09-03T04:36:14.537Z,99932.41
2022-09-03T04:38:43.955Z,99926.91
2022-09-03T04:41:14.361Z,99931.50
2022-09-03T04:43:43.432Z,99946.50
2022-09-03T04:46:16.291Z,99939.59
2022-09-03T04:48:44.116Z,99939.50
2022-09-03T04:51:14.805Z,99943.72
2022-09-03T04:53:47.202Z,99932.37
2022-09-03T04:56:23.018Z,99936.91
2022-09-03T04:58:55.362Z,99939.06
2022-09-03T05:01:25.133Z,99939.66
2022-09-03T05:03:52.650Z,99943.88
2022-09-03T05:06:20.427Z,99939.41
2022-09-03T05:08:49.110Z,99934.88
2022-09-03T05:11:17.870Z,99941.81
2022-09-03T05:13:49.400Z,99947.59
2022-09-03T05:16:17.869Z,99947.19
2022-09-03T05:18:46.001Z,99944.31
2022-09-03T05:21:15.465Z,99952.63
2022-09-03T05:23:45.525Z,99948.28
2022-09-03T05:26:17.576Z,99940.19
2022-09-03T05:28:46.063Z,99944.34
2022-09-03T05:31:15.863Z,99941.53
2022-09-03T05:33:48.398Z,99947.37
2022-09-03T05:36:18.972Z,99948.44
2022-09-03T05:38:47.536Z,99954.06
2022-09-03T05:41:16.238Z,99953.50
2022-09-03T05:43:52.050Z,99948.41
2022-09-03T05:46:20.086Z,99955.41
2022-09-03T05:48:47.732Z,99948.78
2022-09-03T05:51:16.963Z,99948.75
2022-09-03T05:53:46.226Z,99951.88
2022-09-03T05:56:19.271Z,99955.50
2022-09-03T05:58:48.641Z,99955.53
2022-09-03T06:04:29.324Z,99955.16
2022-09-03T06:06:57.018Z,99951.06
2022-09-03T06:09:24.427Z,99954.94
2022-09-03T06:11:52.600Z,99955.53
2022-09-03T06:14:20.697Z,99947.06
2022-09-03T06:16:49.721Z,99949.72
2022-09-03T06:19:17.459Z,99942.13
2022-09-03T06:21:46.450Z,99951.59
2022-09-03T06:24:19.291Z,99942.66
2022-09-03T06:26:48.137Z,99949.25
2022-09-03T06:29:15.735Z,99941.06
2022-09-03T06:31:44.254Z,99947.06
2022-09-03T06:34:12.524Z,99945.78
2022-09-03T06:36:41.422Z,99939.78
2022-09-03T06:39:08.849Z,99940.31
2022-09-03T06:41:36.538Z,99940.78
2022-09-03T06:44:11.644Z,99938.84
2022-09-03T06:46:42.548Z,99935.13
2022-09-03T06:49:11.213Z,99937.09
2022-09-03T06:51:39.225Z,99932.03
2022-09-03T06:54:08.616Z,99934.84
2022-09-03T06:56:40.335Z,99938.47
2022-09-03T06:59:13.772Z,99934.50
2022-09-03T07:01:44.469Z,99936.56
2022-09-03T07:04:16.101Z,99930.94
2022-09-03T07:06:44.393Z,99934.22
2022-09-03T07:09:13.456Z,99935.13
2022-09-03T07:11:47.474Z,99936.38
2022-09-03T07:14:17.920Z,99933.75
2022-09-03T07:16:46.334Z,99934.31
2022-09-03T07:19:14.090Z,99931.94
2022-09-03T07:21:46.729Z,99932.31
2022-09-03T07:24:18.107Z,99929.94
2022-09-03T07:26:47.319Z,99926.13
2022-09-03T07:29:16.138Z,99935.84
2022-09-03T07:31:44.217Z,99933.09
2022-09-03T07:34:13.207Z,99934.16
2022-09-03T07:36:43.052Z,99933.28
2022-09-03T07:39:11.868Z,99938.16
2022-09-03T07:41:45.844Z,99939.63
2022-09-03T07:44:15.408Z,99949.50
2022-09-03T07:46:45.481Z,99948.31
2022-09-03T07:49:13.418Z,99938.78
2022-09-03T07:51:40.865Z,99946.47
2022-09-03T07:54:10.987Z,99940.84
2022-09-03T07:56:40.127Z,99942.94
2022-09-03T07:59:08.507Z,99944.31
2022-09-03T08:01:37.264Z,99939.66
2022-09-03T08:04:07.077Z,99943.00
2022-09-03T08:06:38.084Z,99951.94
2022-09-03T08:09:08.115Z,99945.91
2022-09-03T08:11:40.561Z,99941.25
2022-09-03T08:14:10.070Z,99948.91
2022-09-03T08:16:41.869Z,99942.41
2022-09-03T08:19:11.310Z,99952.03
2022-09-03T08:21:41.848Z,99940.81
2022-09-03T08:24:11.155Z,99945.25
2022-09-03T08:26:41.723Z,99937.38
2022-09-03T08:29:09.681Z,99943.72
2022-09-03T08:31:38.281Z,99955.50
2022-09-03T08:34:07.307Z,99941.75
2022-09-03T08:36:37.426Z,99948.63
2022-09-03T08:39:10.273Z,99953.91
2022-09-03T08:41:53.544Z,99952.31
2022-09-03T08:44:47.387Z,99955.25
2022-09-03T08:47:21.095Z,99949.25
2022-09-03T08:49:58.874Z,99955.06
2022-09-03T08:52:50.001Z,99944.41
2022-09-03T08:55:23.138Z,99948.56
2022-09-03T08:57:55.280Z,99945.97
2022-09-03T09:00:22.673Z,99945.41
2022-09-03T09:03:28.880Z,99948.34
2022-09-03T09:06:07.219Z,99943.94
2022-09-03T09:08:46.298Z,99939.97
2022-09-03T09:11:39.787Z,99934.09
2022-09-03T09:14:20.770Z,99924.56
2022-09-03T09:17:17.681Z,99932.28
2022-09-03T09:20:26.732Z,99928.62
2022-09-03T09:23:06.723Z,99926.50
2022-09-03T09:25:39.428Z,99920.84
2022-09-03T09:28:17.023Z,99915.97
2022-09-03T09:30:50.614Z,99919.19
2022-09-03T09:33:20.254Z,99923.69
2022-09-03T09:35:48.451Z,99915.22
2022-09-03T09:38:16.450Z,99921.41
2022-09-03T09:40:45.687Z,99919.53
2022-09-03T09:43:20.089Z,99920.81
2022-09-03T09:45:49.880Z,99919.19
2022-09-03T09:48:31.457Z,99922.00
2022-09-03T09:51:07.493Z,99919.88
2022-09-03T09:53:35.208Z,99921.41
2022-09-03T09:56:05.713Z,99924.25
2022-09-03T09:58:34.507Z,99918.16
2022-09-03T10:01:13.143Z,99919.69
2022-09-03T10:03:55.636Z,99922.97
2022-09-03T10:06:46.688Z,99917.72
2022-09-03T10:09:19.301Z,99925.03
2022-09-03T10:11:57.186Z,99919.94
2022-09-03T10:14:35.136Z,99924.84
2022-09-03T10:17:10.789Z,99920.66
2022-09-03T10:20:14.766Z,99925.47
2022-09-03T10:22:56.611Z,99915.94
2022-09-03T10:25:43.817Z,99911.38
2022-09-03T10:28:13.354Z,99915.19
2022-09-03T10:30:52.142Z,99909.97
2022-09-03T10:33:44.701Z,99910.59
2022-09-03T10:36:20.126Z,99905.34
2022-09-03T10:38:53.822Z,99900.72
2022-09-03T10:41:28.858Z,99906.50
2022-09-03T10:44:15.521Z,99901.84
2022-09-03T10:47:01.434Z,99904.31
2022-09-03T10:49:53.219Z,99905.62
2022-09-03T10:52:23.707Z,99895.97
2022-09-03T10:55:10.178Z,99894.94
2022-09-03T10:58:08.009Z,99888.03
2022-09-03T11:00:39.966Z,99893.91
2022-09-03T11:03:30.908Z,99883.44
2022-09-03T11:06:04.937Z,99886.44
2022-09-03T11:08:43.087Z,99882.41
2022-09-03T11:11:21.710Z,99881.44
2022-09-03T11:14:10.473Z,99884.81
2022-09-03T11:16:45.624Z,99885.75
2022-09-03T11:19:16.853Z,99887.59
2022-09-03T11:21:44.584Z,99891.53
2022-09-03T11:24:22.127Z,99884.72
2022-09-03T11:27:01.186Z,99898.22
2022-09-03T11:29:38.182Z,99888.91
2022-09-03T11:32:10.923Z,99889.66
2022-09-03T11:34:49.658Z,99890.62
2022-09-03T11:37:26.073Z,99887.59
2022-09-03T11:40:16.979Z,99883.72
2022-09-03T11:42:45.144Z,99889.50
2022-09-03T11:45:26.707Z,99894.31
2022-09-03T11:47:54.652Z,99891.25
2022-09-03T11:50:23.518Z,99896.84
2022-09-03T11:52:53.572Z,99891.00
2022-09-03T11:55:48.084Z,99889.75
2022-09-03T11:58:32.902Z,99898.47
2022-09-03T12:01:03.022Z,99888.41
2022-09-03T12:03:59.916Z,99896.34
2022-09-03T12:06:59.122Z,99895.31
2022-09-03T12:10:02.092Z,99889.06
2022-09-03T12:12:47.884Z,99893.44
2022-09-03T12:15:38.535Z,99900.00
2022-09-03T12:18:20.429Z,99886.69
2022-09-03T12:21:00.004Z,99877.84
2022-09-03T12:23:45.589Z,99887.41
2022-09-03T12:26:25.998Z,99881.13
2022-09-03T12:28:57.835Z,99879.66
2022-09-03T12:31:30.352Z,99884.75
2022-09-03T12:34:10.761Z,99883.34
2022-09-03T12:36:43.609Z,99878.59
2022-09-03T12:39:13.589Z,99883.38
2022-09-03T12:42:01.291Z,99875.19
2022-09-03T12:44:38.283Z,99881.50
2022-09-03T12:50:11.238Z,99877.75
2022-09-03T12:52:59.390Z,99877.72
2022-09-03T12:55:29.840Z,99885.78
2022-09-03T12:58:09.301Z,99878.66
2022-09-03T13:00:46.932Z,99875.84
2022-09-03T13:03:18.866Z,99878.47
2022-09-03T13:05:51.263Z,99877.53
2022-09-03T13:08:22.181Z,99876.16
2022-09-03T13:10:56.420Z,99874.66
2022-09-03T13:13:29.612Z,99861.34
2022-09-03T13:16:09.113Z,99859.81
2022-09-03T13:18:42.511Z,99858.00
2022-09-03T13:21:21.171Z,99859.47
2022-09-03T13:24:16.302Z,99867.59
2022-09-03T13:27:17.815Z,99864.25
2022-09-03T13:29:55.429Z,99863.28
2022-09-03T13:32:35.640Z,99862.06
2022-09-03T13:35:12.974Z,99851.03
2022-09-03T13:37:54.197Z,99853.81
2022-09-03T13:40:33.242Z,99853.94
2022-09-03T13:43:24.926Z,99848.13
2022-09-03T13:45:58.664Z,99857.06
2022-09-03T13:48:53.441Z,99836.94
2022-09-03T13:51:29.877Z,99852.22
2022-09-03T13:54:31.164Z,99846.28
2022-09-03T13:57:30.565Z,99835.06
2022-09-03T14:00:10.749Z,99831.53
2022-09-03T14:03:06.962Z,99825.66
2022-09-03T14:05:56.388Z,99829.75
2022-09-03T14:08:28.965Z,99840.34
2022-09-03T14:10:58.931Z,99835.19
2022-09-03T14:14:08.105Z,99835.50
2022-09-03T14:16:35.432Z,99829.81
2022-09-03T14:19:33.090Z,99826.72
2022-09-03T14:22:06.469Z,99821.19
2022-09-03T14:24:46.312Z,99828.47
2022-09-03T14:27:13.704Z,99815.50
2022-09-03T14:29:51.655Z,99830.03
2022-09-03T14:32:27.586Z,99816.94
2022-09-03T14:35:19.718Z,99818.25
2022-09-03T14:38:16.236Z,99820.59
2022-09-03T14:41:10.267Z,99814.59
2022-09-03T14:43:52.261Z,99815.00
2022-09-03T14:46:57.178Z,99814.09
2022-09-03T14:49:43.603Z,99807.91
2022-09-03T14:52:20.527Z,99806.50
2022-09-03T14:55:20.153Z,99817.22
2022-09-03T14:58:34.011Z,99820.84
2022-09-03T15:01:06.347Z,99818.53
2022-09-03T15:03:33.937Z,99819.06
2022-09-03T15:06:30.728Z,99821.50
2022-09-03T15:09:15.466Z,99825.34
2022-09-03T15:12:11.017Z,99833.22
2022-09-03T15:14:56.718Z,99834.81
2022-09-03T15:17:36.398Z,99824.81
2022-09-03T15:20:36.164Z,99829.75
2022-09-03T15:23:14.565Z,99821.62
2022-09-03T15:26:06.151Z,99822.94
2022-09-03T15:29:11.615Z,99822.38
2022-09-03T15:32:00.469Z,99821.69
2022-09-03T15:34:52.284Z,99818.16
2022-09-03T15:37:30.483Z,99823.59
2022-09-03T15:40:03.414Z,99816.50
2022-09-03T15:42:31.869Z,99811.41
2022-09-03T15:45:21.793Z,99812.84
2022-09-03T15:47:56.548Z,99814.41
2022-09-03T15:50:48.091Z,99812.81
2022-09-03T15:53:31.823Z,99822.97
2022-09-03T15:56:13.937Z,99813.34
2022-09-03T15:58:58.496Z,99811.94
2022-09-03T16:01:32.414Z,99807.50
2022-09-03T16:04:09.740Z,99813.16
2022-09-03T16:06:50.807Z,99816.50
2022-09-03T16:10:22.802Z,99814.47
2022-09-03T16:12:45.597Z,99808.31
2022-09-03T16:15:17.235Z,99805.53
2022-09-03T16:18:27.308Z,99809.94
2022-09-03T16:21:15.402Z,99813.19
2022-09-03T16:24:07.769Z,99812.81
2022-09-03T16:26:41.289Z,99820.03
2022-09-03T16:29:12.609Z,99828.34
2022-09-03T16:32:02.232Z,99829.97
2022-09-03T16:34:40.638Z,99822.53
2022-09-03T16:37:29.175Z,99824.06
2022-09-03T16:40:24.447Z,99826.03
2022-09-03T16:43:18.128Z,99830.06
2022-09-03T16:46:05.833Z,99828.59
2022-09-03T16:48:54.875Z,99821.75
2022-09-03T16:51:43.633Z,99815.28
2022-09-03T16:54:44.100Z,99820.16
2022-09-03T16:57:45.948Z,99827.56
2022-09-03T17:00:16.118Z,99825.00
2022-09-03T17:03:04.244Z,99822.38
2022-09-03T17:05:35.002Z,99830.25
2022-09-03T17:08:24.658Z,99827.81
2022-09-03T17:11:04.303Z,99832.41
2022-09-03T17:13:49.786Z,99838.59
2022-09-03T17:16:48.384Z,99843.75
2022-09-03T17:19:37.605Z,99840.31
2022-09-03T17:22:34.174Z,99839.44
2022-09-03T17:25:07.849Z,99845.53
2022-09-03T17:27:47.564Z,99845.41
2022-09-03T17:30:24.097Z,99849.44
2022-09-03T17:33:06.955Z,99851.78
2022-09-03T17:35:49.299Z,99851.97
2022-09-03T17:38:38.813Z,99851.75
2022-09-03T17:41:06.138Z,99859.13
2022-09-03T17:43:48.990Z,99862.31
2022-09-03T17:46:28.649Z,99861.47
2022-09-03T17:49:00.463Z,99862.50
2022-09-03T17:51:31.883Z,99859.88
2022-09-03T17:54:32.722Z,99855.22
2022-09-03T17:57:13.520Z,99856.53
2022-09-03T17:59:46.182Z,99865.44
2022-09-03T18:02:33.563Z,99863.53
2022-09-03T18:05:04.563Z,99865.50
2022-09-03T18:07:44.124Z,99877.88
2022-09-03T18:10:14.625Z,99873.97
2022-09-03T18:13:04.037Z,99882.88
2022-09-03T18:16:01.136Z,99888.19
2022-09-03T18:18:30.434Z,99886.00
2022-09-03T18:21:26.357Z,99896.09
2022-09-03T18:24:53.689Z,99892.13
2022-09-03T18:27:47.004Z,99895.53
2022-09-03T18:30:34.080Z,99902.37
2022-09-03T18:33:20.564Z,99902.72
2022-09-03T18:36:06.785Z,99911.59
2022-09-03T18:38:55.655Z,99908.34
2022-09-03T18:42:10.194Z,99916.94
2022-09-03T18:45:23.338Z,99911.47
2022-09-03T18:48:27.144Z,99911.69
2022-09-03T18:51:39.685Z,99911.34
2022-09-03T18:54:50.574Z,99912.91
2022-09-03T18:57:46.253Z,99913.16
2022-09-03T19:00:33.649Z,99910.81
2022-09-03T19:03:30.247Z,99913.41
2022-09-03T19:06:25.756Z,99909.53
2022-09-03T19:09:34.269Z,99915.97
2022-09-03T19:12:51.772Z,99912.34
2022-09-03T19:16:19.094Z,99922.13
2022-09-03T19:19:13.991Z,99917.91
2022-09-03T19:22:13.015Z,99920.91
2022-09-03T19:24:59.240Z,99922.81
2022-09-03T19:27:59.885Z,99917.06
2022-09-03T19:31:09.789Z,99924.03
2022-09-03T19:37:36.457Z,99916.87
2022-09-03T19:40:53.537Z,99915.75
2022-09-03T19:43:48.697Z,99924.97
2022-09-03T19:46:47.079Z,99929.59
2022-09-03T19:49:50.517Z,99923.06
2022-09-03T19:52:43.260Z,99930.66
2022-09-03T19:55:41.189Z,99936.06
2022-09-03T19:58:42.470Z,99932.75
2022-09-03T20:01:30.098Z,99926.66
2022-09-03T20:04:19.576Z,99932.28
2022-09-03T20:07:06.527Z,99944.56
2022-09-03T20:09:57.453Z,99938.31
2022-09-03T20:12:26.919Z,99952.38
2022-09-03T20:14:54.702Z,99957.09
2022-09-03T20:17:39.310Z,99958.06
2022-09-03T20:20:18.750Z,99959.09
2022-09-03T20:23:22.102Z,99958.91
2022-09-03T20:26:02.142Z,99957.91
2022-09-03T20:28:54.770Z,99956.34
2022-09-03T20:31:28.560Z,99967.69
2022-09-03T20:34:08.227Z,99963.97
2022-09-03T20:36:55.597Z,99974.38
2022-09-03T20:39:36.948Z,99974.97
2022-09-03T20:42:10.329Z,99980.28
2022-09-03T20:44:59.797Z,99970.13
2022-09-03T20:47:39.974Z,99978.81
2022-09-03T20:50:13.150Z,99979.19
2022-09-03T20:53:02.005Z,99979.09
2022-09-03T20:55:34.686Z,99986.19
2022-09-03T20:58:30.212Z,99988.59
2022-09-03T21:01:09.494Z,99994.69
2022-09-03T21:04:07.436Z,99994.50
2022-09-03T21:06:41.443Z,99994.13
2022-09-03T21:09:33.927Z,99996.62
2022-09-03T21:12:15.784Z,99989.88
2022-09-03T21:15:03.132Z,99990.72
2022-09-03T21:17:42.738Z,99987.41
2022-09-03T21:20:25.628Z,99987.53
2022-09-03T21:23:14.668Z,99994.47
2022-09-03T21:25:51.718Z,100000.72
2022-09-03T21:28:38.537Z,100000.94
2022-09-03T21:31:20.202Z,99997.34
2022-09-03T21:33:50.232Z,99994.25
2022-09-03T21:36:30.205Z,100001.34
2022-09-03T21:39:01.475Z,100001.47
2022-09-03T21:41:45.288Z,100006.69
2022-09-03T21:44:20.818Z,100015.56
2022-09-03T21:46:54.241Z,100010.56
2022-09-03T21:49:39.624Z,100015.09
2022-09-03T21:52:17.801Z,100004.66
2022-09-03T21:54:45.190Z,100010.31
2022-09-03T21:57:31.093Z,100009.59
2022-09-03T22:00:21.818Z,100019.25
2022-09-03T22:02:50.002Z,100021.66
2022-09-03T22:05:18.533Z,100013.06
2022-09-03T22:07:54.792Z,100020.56
2022-09-03T22:11:03.858Z,100014.84
2022-09-03T22:13:58.987Z,100018.66
2022-09-03T22:16:30.315Z,100010.06
2022-09-03T22:18:58.669Z,100019.25
2022-09-03T22:21:37.084Z,100018.84
2022-09-03T22:24:24.622Z,100030.06
2022-09-03T22:27:22.991Z,100022.09
2022-09-03T22:29:59.827Z,100020.13
2022-09-03T22:32:53.367Z,100014.13
2022-09-03T22:35:36.794Z,100020.69
2022-09-03T22:38:16.533Z,100015.69
2022-09-03T22:40:49.129Z,100020.69
2022-09-03T22:43:38.422Z,100020.41
2022-09-03T22:46:18.709Z,100019.78
2022-09-03T22:49:21.033Z,100021.22
2022-09-03T22:52:00.841Z,100017.88
2022-09-03T22:54:46.673Z,100016.44
2022-09-03T22:57:16.405Z,100011.41
2022-09-03T22:59:58.894Z,100014.56
2022-09-03T23:02:28.795Z,100017.34
2022-09-03T23:05:02.207Z,100012.47
2022-09-03T23:07:59.391Z,100018.09
2022-09-03T23:10:31.284Z,100021.47
2022-09-03T23:13:14.606Z,100017.03
2022-09-03T23:15:42.550Z,100018.28
2022-09-03T23:18:17.586Z,100024.44
2022-09-03T23:20:55.307Z,100021.13
2022-09-03T23:23:29.460Z,100018.47
2022-09-03T23:26:10.133Z,100021.75
2022-09-03T23:28:38.373Z,100014.00
2022-09-03T23:31:22.186Z,100022.53
2022-09-03T23:33:52.222Z,100019.09
2022-09-03T23:37:01.309Z,100022.94
2022-09-03T23:39:42.380Z,100020.94
2022-09-03T23:42:33.663Z,100030.22
2022-09-03T23:45:15.892Z,100033.81
2022-09-03T23:48:07.245Z,100030.06
2022-09-03T23:50:58.461Z,100025.09
2022-09-03T23:53:36.574Z,100027.28
2022-09-03T23:56:22.487Z,100029.25
2022-09-03T23:59:14.425Z,100025.16
